Time;durP1;ratioP1;P1;durP2;ratioP2;P2;SDS_P1;SDS_P2;PMS_P1;PMS_P2;Temp;Humidity;BMP_temperature;BMP_pressure;BME280_temperature;BME280_humidity;BME280_pressure;Samples;Min_cycle;Max_cycle;Signal;HPM_P1;HPM_P2
2023/05/26 00:01:39;;;;;;;15.05;11.43;;;27.20;99.90;;;;;;1830657;76;22186;-86
2023/05/26 00:04:18;;;;;;;20.37;11.68;;;27.20;99.90;;;;;;1859784;75;21150;-86
2023/05/26 00:06:58;;;;;;;15.80;11.38;;;27.20;99.90;;;;;;1893683;75;22136;-86
2023/05/26 00:09:25;;;;;;;15.80;11.93;;;27.20;99.90;;;;;;1872495;75;21147;-87
2023/05/26 00:11:56;;;;;;;15.30;11.73;;;27.20;99.90;;;;;;1869735;75;21194;-86
2023/05/26 00:14:27;;;;;;;20.30;13.03;;;27.20;99.90;;;;;;1882458;75;21201;-87
2023/05/26 00:16:59;;;;;;;17.75;11.53;;;27.20;99.90;;;;;;1888799;75;21182;-85
2023/05/26 00:19:31;;;;;;;16.23;10.15;;;27.20;99.90;;;;;;1875868;75;21141;-86
2023/05/26 00:22:02;;;;;;;16.70;11.57;;;27.20;99.90;;;;;;1868784;75;21100;-86
2023/05/26 00:24:34;;;;;;;14.55;11.12;;;27.20;99.90;;;;;;1871481;75;21190;-89
2023/05/26 00:27:16;;;;;;;14.35;11.50;;;27.20;99.90;;;;;;1864921;75;21155;-87
2023/05/26 00:29:54;;;;;;;12.60;10.32;;;27.20;99.90;;;;;;1875313;75;21140;-88
2023/05/26 00:32:29;;;;;;;14.80;10.55;;;27.30;99.90;;;;;;1869587;75;21154;-87
2023/05/26 00:35:04;;;;;;;16.20;9.60;;;27.30;99.90;;;;;;1901868;75;21196;-88
2023/05/26 00:38:05;;;;;;;19.02;11.95;;;27.30;99.90;;;;;;1904033;75;21945;-85
2023/05/26 00:40:55;;;;;;;14.07;12.10;;;27.30;99.90;;;;;;1880155;75;21188;-86
2023/05/26 00:43:29;;;;;;;15.80;10.53;;;27.30;99.90;;;;;;1901933;75;21548;-88
2023/05/26 00:46:04;;;;;;;13.43;11.38;;;27.30;99.90;;;;;;1886424;75;21130;-76
2023/05/26 00:48:35;;;;;;;13.25;10.38;;;27.40;99.90;;;;;;1889834;75;21096;-77
2023/05/26 00:51:06;;;;;;;20.72;10.98;;;27.30;99.90;;;;;;1898072;75;21151;-76
2023/05/26 00:53:40;;;;;;;15.53;9.40;;;27.40;99.90;;;;;;1900072;74;21599;-77
2023/05/26 00:56:14;;;;;;;17.12;10.68;;;27.40;99.90;;;;;;1902575;75;21163;-77
2023/05/26 00:58:45;;;;;;;16.05;9.93;;;27.50;99.90;;;;;;1889652;75;21250;-81
2023/05/26 01:01:17;;;;;;;16.40;10.10;;;27.50;99.90;;;;;;1898453;75;21084;-77
2023/05/26 01:03:48;;;;;;;14.93;9.55;;;27.50;99.90;;;;;;1885610;75;21156;-77
2023/05/26 01:06:22;;;;;;;14.55;9.45;;;27.50;99.90;;;;;;1897003;75;21171;-74
2023/05/26 01:08:52;;;;;;;21.23;10.60;;;27.60;99.90;;;;;;1894429;75;22063;-75
2023/05/26 01:11:43;;;;;;;15.28;9.25;;;27.60;99.90;;;;;;1884925;75;21175;-75
2023/05/26 01:14:28;;;;;;;15.65;11.55;;;27.60;99.90;;;;;;1898651;75;21233;-75
2023/05/26 01:17:03;;;;;;;20.32;10.53;;;27.60;99.90;;;;;;1892960;75;21139;-78
2023/05/26 01:19:56;;;;;;;14.35;10.20;;;27.60;99.90;;;;;;1893427;75;21162;-77
2023/05/26 01:22:50;;;;;;;14.63;9.83;;;27.60;99.90;;;;;;1887541;75;21100;-76
2023/05/26 01:25:48;;;;;;;13.28;10.08;;;27.60;99.90;;;;;;1896436;75;21175;-75
2023/05/26 01:28:24;;;;;;;14.25;10.30;;;27.60;99.90;;;;;;1887245;75;21562;-77
2023/05/26 01:30:59;;;;;;;13.65;10.55;;;27.60;99.90;;;;;;1889621;74;21426;-75
2023/05/26 01:33:33;;;;;;;16.67;11.55;;;27.70;99.90;;;;;;1891287;75;21148;-76
2023/05/26 01:36:05;;;;;;;20.37;11.60;;;27.70;99.90;;;;;;1886837;74;21272;-76
2023/05/26 01:38:39;;;;;;;30.12;11.28;;;27.70;99.90;;;;;;1871106;75;21143;-76
2023/05/26 01:41:21;;;;;;;32.45;13.62;;;27.80;99.90;;;;;;1874278;75;21167;-75
2023/05/26 01:44:01;;;;;;;17.12;11.93;;;27.90;99.90;;;;;;1873658;75;21195;-77
2023/05/26 01:46:38;;;;;;;16.55;12.25;;;27.90;99.90;;;;;;1845796;76;21190;-77
2023/05/26 01:49:12;;;;;;;14.30;10.28;;;28.00;99.90;;;;;;1871433;75;21133;-79
2023/05/26 01:51:50;;;;;;;13.18;10.88;;;28.00;99.90;;;;;;1873347;75;21124;-78
2023/05/26 01:54:25;;;;;;;18.62;11.18;;;28.10;99.90;;;;;;1882867;75;21205;-79
2023/05/26 01:57:00;;;;;;;17.07;11.95;;;28.20;99.90;;;;;;1847319;76;21855;-78
2023/05/26 01:59:31;;;;;;;17.45;11.43;;;28.30;99.90;;;;;;1887365;75;21241;-76
2023/05/26 02:02:02;;;;;;;15.55;11.83;;;28.40;99.90;;;;;;1877081;75;21183;-74
2023/05/26 02:04:34;;;;;;;18.62;12.28;;;28.60;99.90;;;;;;1890504;75;21064;-74
2023/05/26 02:07:07;;;;;;;15.05;12.00;;;28.70;99.90;;;;;;1896850;75;21100;-77
2023/05/26 02:09:41;;;;;;;15.00;12.30;;;28.80;99.90;;;;;;1881073;75;21510;-74
2023/05/26 02:12:32;;;;;;;16.77;12.10;;;28.90;99.90;;;;;;1847073;76;21156;-73
2023/05/26 02:15:06;;;;;;;14.60;12.65;;;28.90;99.90;;;;;;1871932;75;21150;-75
2023/05/26 02:17:42;;;;;;;18.65;13.30;;;29.10;99.90;;;;;;1876678;75;21155;-77
2023/05/26 02:20:17;;;;;;;17.90;13.32;;;29.10;99.90;;;;;;1837721;76;21187;-77
2023/05/26 02:22:48;;;;;;;17.60;13.40;;;29.20;99.90;;;;;;1879117;75;21060;-78
2023/05/26 02:25:20;;;;;;;25.32;16.35;;;29.20;99.90;;;;;;1882760;75;21080;-80
2023/05/26 02:27:52;;;;;;;22.00;17.45;;;29.40;99.90;;;;;;1845376;77;21152;-79
2023/05/26 02:30:24;;;;;;;19.65;16.00;;;29.50;99.90;;;;;;1883060;75;21036;-82
2023/05/26 02:32:56;;;;;;;19.62;15.40;;;29.70;99.90;;;;;;1883934;75;21109;-80
2023/05/26 02:35:27;;;;;;;21.57;16.30;;;29.80;99.90;;;;;;1863923;76;21092;-79
2023/05/26 02:37:59;;;;;;;20.65;15.98;;;29.90;99.90;;;;;;1901599;74;21061;-81
2023/05/26 02:40:37;;;;;;;22.45;16.32;;;30.00;99.90;;;;;;1905971;74;21134;-78
2023/05/26 02:46:16;;;;;;;21.55;17.17;;;30.10;99.90;;;;;;1817904;77;21216;-80
2023/05/26 02:49:20;;;;;;;21.10;17.17;;;30.30;99.90;;;;;;1906640;74;21583;-80
2023/05/26 02:52:05;;;;;;;23.67;16.30;;;30.40;99.90;;;;;;1884725;74;21151;-83
2023/05/26 02:55:04;;;;;;;24.82;17.15;;;30.40;99.90;;;;;;1906703;74;21119;-81
2023/05/26 02:57:50;;;;;;;21.12;15.90;;;30.50;99.90;;;;;;1905670;74;21103;-75
2023/05/26 03:00:27;;;;;;;24.52;16.82;;;30.60;99.90;;;;;;1905410;74;21110;-87
2023/05/26 03:03:00;;;;;;;22.17;15.63;;;30.60;99.90;;;;;;1909922;74;21240;-85
2023/05/26 03:05:31;;;;;;;21.52;16.85;;;30.70;99.90;;;;;;1902643;74;21273;-87
2023/05/26 03:08:03;;;;;;;22.55;16.10;;;30.80;99.90;;;;;;1900881;74;21651;-87
2023/05/26 03:10:35;;;;;;;20.37;16.52;;;30.90;99.90;;;;;;1909350;74;21100;-83
2023/05/26 03:13:09;;;;;;;23.12;16.57;;;30.80;99.90;;;;;;1906483;74;21206;-84
2023/05/26 03:16:02;;;;;;;;;;;30.80;99.90;;;;;;1906925;74;21163;-83
2023/05/26 03:18:36;;;;;;;19.45;17.23;;;30.90;99.90;;;;;;1903668;74;20275;-89
2023/05/26 03:21:18;;;;;;;22.35;17.48;;;30.90;99.90;;;;;;1884525;74;21200;-88
2023/05/26 03:23:53;;;;;;;19.87;17.17;;;31.00;99.90;;;;;;1897030;74;21135;-88
2023/05/26 03:26:25;;;;;;;23.73;17.30;;;31.10;99.90;;;;;;1910679;74;21623;-87
2023/05/26 03:28:56;;;;;;;20.40;17.52;;;31.10;99.90;;;;;;1905047;74;21177;-89
2023/05/26 03:31:30;;;;;;;25.08;18.37;;;31.20;99.90;;;;;;1912725;74;21120;-86
2023/05/26 03:34:02;;;;;;;22.60;17.90;;;31.20;99.90;;;;;;1909346;74;21080;-87
2023/05/26 03:36:34;;;;;;;23.50;18.20;;;31.20;99.90;;;;;;1909972;74;21131;-85
2023/05/26 03:39:07;;;;;;;25.62;19.25;;;31.30;99.90;;;;;;1855293;76;21223;-80
2023/05/26 03:41:38;;;;;;;26.73;18.82;;;31.30;99.90;;;;;;1901086;75;21077;-86
2023/05/26 03:44:18;;;;;;;26.15;20.20;;;31.40;99.90;;;;;;1858139;76;21120;-83
2023/05/26 03:46:50;;;;;;;25.25;19.35;;;31.50;99.90;;;;;;1889049;74;21631;-84
2023/05/26 03:49:25;;;;;;;24.67;18.60;;;31.50;99.90;;;;;;1861948;76;21174;-83
2023/05/26 03:51:57;;;;;;;28.02;19.87;;;31.60;99.90;;;;;;1890251;75;21096;-81
2023/05/26 03:54:28;;;;;;;23.67;18.65;;;31.70;99.90;;;;;;1908615;75;21245;-81
2023/05/26 03:57:04;;;;;;;25.85;19.48;;;31.70;99.90;;;;;;1889994;75;21140;-83
2023/05/26 03:59:36;;;;;;;24.47;18.52;;;31.80;99.90;;;;;;1899426;75;21143;-82
2023/05/26 04:02:10;;;;;;;21.17;18.37;;;31.90;99.90;;;;;;1894651;75;21543;-80
2023/05/26 04:04:58;;;;;;;23.00;18.57;;;31.90;99.90;;;;;;1893101;74;21137;-79
2023/05/26 04:07:29;;;;;;;25.20;17.62;;;32.00;99.90;;;;;;1886862;75;21143;-87
2023/05/26 04:10:03;;;;;;;23.07;18.00;;;32.10;99.90;;;;;;1880365;74;21179;-83
2023/05/26 04:12:35;;;;;;;22.10;17.27;;;32.20;99.60;;;;;;1890556;75;21721;-88
2023/05/26 04:15:28;;;;;;;22.98;18.25;;;32.20;99.80;;;;;;1897150;75;22114;-84
2023/05/26 04:17:59;;;;;;;21.68;16.82;;;32.30;99.40;;;;;;1888024;74;21140;-80
2023/05/26 04:20:31;;;;;;;21.05;17.07;;;32.40;98.80;;;;;;1893881;75;21147;-87
2023/05/26 04:23:03;;;;;;;21.52;16.37;;;32.40;99.20;;;;;;1891789;75;21119;-80
2023/05/26 04:25:34;;;;;;;21.90;15.93;;;32.50;98.10;;;;;;1893130;75;21228;-87
2023/05/26 04:28:07;;;;;;;19.27;17.15;;;32.50;98.50;;;;;;1838164;77;21096;-88
2023/05/26 04:30:39;;;;;;;18.30;16.32;;;32.60;97.60;;;;;;1904790;75;21134;-87
2023/05/26 04:33:13;;;;;;;19.90;17.00;;;32.70;97.60;;;;;;1894900;75;21557;-88
2023/05/26 04:35:47;;;;;;;20.20;17.52;;;32.70;97.70;;;;;;1895902;74;21091;-87
2023/05/26 04:38:20;;;;;;;18.92;16.73;;;32.80;96.80;;;;;;1914228;74;21574;-90
2023/05/26 04:40:51;;;;;;;19.52;17.35;;;32.70;96.20;;;;;;1917083;74;21677;-86
2023/05/26 04:43:23;;;;;;;23.75;17.55;;;32.70;96.70;;;;;;1897136;74;21271;-88
2023/05/26 04:45:57;;;;;;;17.87;15.93;;;32.70;96.70;;;;;;1865729;76;21167;-88
2023/05/26 04:48:28;;;;;;;23.00;16.17;;;32.80;96.90;;;;;;1835747;77;21209;-86
2023/05/26 04:51:05;;;;;;;20.23;16.50;;;32.90;96.70;;;;;;1846940;76;21158;-89
2023/05/26 04:53:55;;;;;;;22.80;16.90;;;33.00;96.70;;;;;;1829497;77;21387;-83
2023/05/26 04:56:27;;;;;;;24.45;17.20;;;33.10;95.90;;;;;;1912872;74;21049;-83
2023/05/26 04:58:59;;;;;;;23.10;17.35;;;33.10;95.80;;;;;;1909759;74;21170;-85
2023/05/26 05:01:33;;;;;;;22.30;16.50;;;33.10;95.70;;;;;;1910737;74;21091;-83
2023/05/26 05:04:05;;;;;;;22.27;17.23;;;33.00;95.60;;;;;;1901447;74;21084;-84
2023/05/26 05:06:36;;;;;;;22.77;17.42;;;32.90;96.20;;;;;;1908794;74;21254;-85
2023/05/26 05:09:09;;;;;;;21.90;16.95;;;33.00;96.50;;;;;;1908707;74;21165;-84
2023/05/26 05:11:57;;;;;;;20.75;16.42;;;33.00;95.80;;;;;;1919361;74;21179;-82
2023/05/26 05:14:56;;;;;;;19.57;16.07;;;33.00;96.10;;;;;;1889641;74;21682;-78
2023/05/26 05:17:15;;;;;;;22.82;17.12;;;33.10;95.80;;;;;;1869931;74;21186;-81
2023/05/26 05:19:46;;;;;;;20.75;17.15;;;33.20;95.80;;;;;;1910664;74;21143;-85
2023/05/26 05:22:18;;;;;;;21.75;16.73;;;33.30;95.40;;;;;;1899432;74;21103;-80
2023/05/26 05:24:49;;;;;;;19.02;17.02;;;33.30;95.40;;;;;;1877211;76;21174;-80
2023/05/26 05:27:21;;;;;;;22.42;17.17;;;33.30;95.70;;;;;;1860878;76;21153;-82
2023/05/26 05:29:52;;;;;;;20.37;16.50;;;33.50;95.30;;;;;;1874886;76;21119;-81
2023/05/26 05:32:24;;;;;;;20.43;17.57;;;33.50;95.10;;;;;;1906486;74;21634;-77
2023/05/26 05:34:55;;;;;;;19.05;16.93;;;33.50;95.00;;;;;;1923739;74;21103;-80
2023/05/26 05:37:26;;;;;;;20.48;16.30;;;33.50;95.00;;;;;;1918167;73;21268;-82
2023/05/26 05:39:58;;;;;;;19.65;17.62;;;33.60;94.70;;;;;;1923323;74;21115;-80
2023/05/26 05:42:40;;;;;;;19.17;17.07;;;33.70;94.30;;;;;;1900541;74;21108;-82
2023/05/26 05:45:12;;;;;;;24.75;16.62;;;33.70;94.10;;;;;;1911453;74;21221;-82
2023/05/26 05:47:55;;;;;;;21.05;16.05;;;33.60;93.60;;;;;;1870188;76;21157;-80
2023/05/26 05:50:26;;;;;;;20.40;15.95;;;33.60;94.00;;;;;;1850461;76;21171;-81
2023/05/26 05:52:57;;;;;;;20.50;16.62;;;33.60;93.50;;;;;;1866555;75;21101;-81
2023/05/26 05:55:29;;;;;;;23.15;17.30;;;33.60;93.50;;;;;;1868161;75;21185;-81
2023/05/26 05:58:00;;;;;;;22.13;16.17;;;33.60;94.00;;;;;;1864571;76;21116;-82
2023/05/26 06:00:59;;;;;;;20.05;16.45;;;33.70;94.40;;;;;;1871631;76;21205;-82
2023/05/26 06:03:25;;;;;;;19.15;16.12;;;33.70;93.80;;;;;;1877131;74;21163;-80
2023/05/26 06:05:57;;;;;;;23.67;18.50;;;33.70;93.60;;;;;;1911323;74;21111;-79
2023/05/26 06:08:28;;;;;;;22.67;17.57;;;33.70;94.00;;;;;;1906906;74;21166;-80
2023/05/26 06:11:18;;;;;;;22.95;17.05;;;33.70;94.30;;;;;;1904089;74;21107;-79
2023/05/26 06:13:56;;;;;;;21.55;16.70;;;33.70;93.90;;;;;;1914490;74;21704;-80
2023/05/26 06:16:28;;;;;;;20.43;16.67;;;33.70;94.20;;;;;;1873634;76;21115;-81
2023/05/26 06:21:52;;;;;;;18.48;16.32;;;33.80;93.70;;;;;;1740282;81;21215;-79
2023/05/26 06:24:25;;;;;;;21.15;16.20;;;33.90;93.80;;;;;;1828161;78;21153;-82
2023/05/26 06:26:56;;;;;;;18.17;16.20;;;34.00;93.70;;;;;;1774980;80;21209;-80
2023/05/26 06:29:27;;;;;;;21.95;16.50;;;34.10;92.80;;;;;;1830479;74;21183;-80
2023/05/26 06:32:01;;;;;;;19.92;15.65;;;34.20;92.60;;;;;;1911285;74;21178;-80
2023/05/26 06:34:32;;;;;;;21.07;15.68;;;34.30;92.20;;;;;;1909817;74;21107;-82
2023/05/26 06:37:04;;;;;;;17.17;15.10;;;34.30;92.60;;;;;;1900331;74;21093;-81
2023/05/26 06:39:56;;;;;;;20.20;16.05;;;34.30;93.00;;;;;;1885320;75;21221;-78
2023/05/26 06:42:30;;;;;;;20.95;15.83;;;34.40;92.70;;;;;;1829162;74;21166;-81
2023/05/26 06:45:02;;;;;;;19.98;15.58;;;34.30;93.00;;;;;;1881038;75;21194;-78
2023/05/26 06:47:52;;;;;;;19.52;15.65;;;34.30;92.90;;;;;;1827860;76;21194;-82
2023/05/26 06:50:23;;;;;;;23.32;17.40;;;34.30;93.10;;;;;;1886438;75;21218;-80
2023/05/26 06:53:13;;;;;;;36.40;17.20;;;34.20;93.50;;;;;;1851623;76;21885;-80
2023/05/26 06:56:13;;;;;;;21.97;16.73;;;34.10;93.90;;;;;;1886919;75;21123;-82
2023/05/26 06:58:43;;;;;;;20.00;16.37;;;34.10;93.60;;;;;;1885443;75;21195;-78
2023/05/26 07:01:34;;;;;;;19.20;16.00;;;34.10;93.50;;;;;;1883282;75;21204;-80
2023/05/26 07:04:23;;;;;;;25.27;16.37;;;34.00;93.60;;;;;;1884045;75;21229;-77
2023/05/26 07:07:12;;;;;;;18.65;16.27;;;33.90;93.70;;;;;;1885476;75;21156;-76
2023/05/26 07:09:45;;;;;;;21.97;16.30;;;33.80;93.70;;;;;;1888699;75;21241;-83
2023/05/26 07:12:16;;;;;;;20.08;16.45;;;33.70;94.00;;;;;;1883604;75;21147;-83
2023/05/26 07:14:48;;;;;;;17.30;15.20;;;33.70;94.00;;;;;;1885806;75;21132;-80
2023/05/26 07:17:20;;;;;;;20.68;16.48;;;33.60;94.40;;;;;;1886862;75;21185;-81
2023/05/26 07:19:51;;;;;;;19.85;15.63;;;33.60;94.00;;;;;;1894565;75;21150;-82
2023/05/26 07:22:22;;;;;;;20.45;16.37;;;33.50;94.00;;;;;;1888236;75;21646;-74
2023/05/26 07:24:54;;;;;;;22.62;16.80;;;33.40;94.10;;;;;;1889163;75;21229;-81
2023/05/26 07:27:25;;;;;;;17.67;13.48;;;33.30;94.50;;;;;;1889915;75;21120;-77
2023/05/26 07:29:58;;;;;;;16.12;13.75;;;33.30;93.80;;;;;;1892641;75;21081;-83
2023/05/26 07:32:29;;;;;;;18.35;14.58;;;33.00;94.00;;;;;;1891153;75;21096;-85
2023/05/26 07:35:00;;;;;;;18.37;13.28;;;32.80;94.40;;;;;;1877692;75;21111;-82
2023/05/26 07:37:32;;;;;;;18.82;11.80;;;32.50;94.00;;;;;;1888088;75;21132;-84
2023/05/26 07:40:04;;;;;;;16.32;10.25;;;32.20;94.30;;;;;;1887311;75;21108;-81
2023/05/26 07:42:36;;;;;;;9.28;6.25;;;31.90;95.30;;;;;;1897025;75;21214;-80
2023/05/26 07:45:12;;;;;;;9.10;6.30;;;31.60;94.60;;;;;;1883182;74;21206;-79
2023/05/26 07:47:44;;;;;;;11.70;8.50;;;31.30;94.00;;;;;;1881071;75;21474;-80
2023/05/26 07:50:15;;;;;;;9.08;7.72;;;31.10;95.00;;;;;;1880797;75;21081;-82
2023/05/26 07:52:52;;;;;;;13.60;8.35;;;30.90;95.90;;;;;;1886407;75;21077;-82
2023/05/26 07:55:24;;;;;;;17.12;9.50;;;30.70;96.80;;;;;;1844614;76;21127;-81
2023/05/26 07:57:55;;;;;;;9.95;7.65;;;30.50;97.70;;;;;;1886688;75;21136;-78
2023/05/26 08:00:26;;;;;;;13.48;7.83;;;30.40;97.70;;;;;;1890105;74;21206;-83
2023/05/26 08:02:57;;;;;;;11.53;7.80;;;30.20;98.30;;;;;;1894901;75;21201;-79
2023/05/26 08:05:29;;;;;;;12.70;8.03;;;30.10;98.60;;;;;;1875686;75;21234;-79
2023/05/26 08:08:00;;;;;;;10.45;8.68;;;29.90;99.20;;;;;;1889439;75;21120;-79
2023/05/26 08:10:33;;;;;;;11.45;9.00;;;29.80;99.80;;;;;;1886751;75;21108;-82
2023/05/26 08:13:07;;;;;;;10.98;8.05;;;29.70;99.90;;;;;;1885534;75;21198;-82
2023/05/26 08:15:38;;;;;;;7.90;6.58;;;29.60;99.90;;;;;;1868573;75;21174;-85
2023/05/26 08:18:10;;;;;;;7.47;6.67;;;29.50;99.90;;;;;;1897865;75;21127;-84
2023/05/26 08:20:42;;;;;;;8.50;6.90;;;29.50;99.90;;;;;;1905155;75;21119;-84
2023/05/26 08:23:13;;;;;;;11.50;9.15;;;29.50;99.90;;;;;;1890453;75;21221;-81
2023/05/26 08:25:44;;;;;;;14.20;9.70;;;29.40;99.90;;;;;;1876466;75;21226;-82
2023/05/26 08:28:17;;;;;;;12.63;9.63;;;29.40;99.90;;;;;;1886806;75;21112;-80
2023/05/26 08:30:49;;;;;;;14.47;11.00;;;29.30;99.70;;;;;;1877922;74;21125;-80
2023/05/26 08:33:20;;;;;;;15.75;10.90;;;29.30;99.90;;;;;;1885608;75;21743;-78
2023/05/26 08:35:51;;;;;;;15.53;11.88;;;29.20;99.90;;;;;;1887441;75;21188;-78
2023/05/26 08:38:23;;;;;;;13.55;11.00;;;29.30;99.90;;;;;;1852621;76;21144;-79
2023/05/26 08:40:57;;;;;;;14.55;11.53;;;29.20;99.90;;;;;;1890425;75;21757;-77
2023/05/26 08:43:41;;;;;;;12.98;10.82;;;29.20;99.90;;;;;;1886966;75;21553;-77
2023/05/26 08:46:17;;;;;;;14.38;10.32;;;29.20;99.90;;;;;;1875148;75;21128;-77
2023/05/26 08:49:01;;;;;;;10.78;9.55;;;29.20;99.90;;;;;;1892995;75;21163;-78
2023/05/26 08:51:35;;;;;;;9.38;7.58;;;29.20;99.90;;;;;;1895726;74;21623;-77
2023/05/26 08:54:09;;;;;;;10.70;7.33;;;29.20;99.90;;;;;;1901224;75;21805;-78
2023/05/26 08:57:02;;;;;;;8.98;6.87;;;29.20;99.90;;;;;;1901169;75;21603;-78
2023/05/26 08:59:30;;;;;;;26.65;9.90;;;29.20;99.90;;;;;;1885839;75;21195;-79
2023/05/26 09:02:02;;;;;;;13.48;7.53;;;29.20;99.90;;;;;;1887259;75;21615;-80
2023/05/26 09:04:40;;;;;;;15.85;9.03;;;29.20;99.90;;;;;;1879569;74;21670;-78
2023/05/26 09:07:12;;;;;;;11.50;7.83;;;29.10;99.90;;;;;;1882129;74;21600;-79
2023/05/26 09:09:44;;;;;;;11.33;8.00;;;29.10;99.90;;;;;;1871781;74;21146;-77
2023/05/26 09:12:16;;;;;;;15.35;8.20;;;29.10;99.90;;;;;;1853009;76;21132;-80
2023/05/26 09:14:48;;;;;;;12.20;8.33;;;29.00;99.90;;;;;;1884403;74;21261;-75
2023/05/26 09:17:20;;;;;;;15.25;9.35;;;28.90;99.90;;;;;;1886417;74;21306;-76
2023/05/26 09:19:53;;;;;;;19.05;9.75;;;28.80;99.90;;;;;;1880168;75;21704;-79
2023/05/26 09:22:27;;;;;;;19.25;13.45;;;28.80;99.90;;;;;;1852337;76;21195;-79
2023/05/26 09:24:59;;;;;;;22.22;14.63;;;28.80;99.90;;;;;;1882739;75;21103;-75
2023/05/26 09:27:33;;;;;;;18.02;13.90;;;28.80;99.90;;;;;;1884643;74;21182;-79
2023/05/26 09:30:06;;;;;;;15.80;12.33;;;28.80;99.90;;;;;;1831840;77;21162;-79
2023/05/26 09:32:39;;;;;;;14.60;10.05;;;28.80;99.90;;;;;;1847991;76;21101;-80
2023/05/26 09:35:11;;;;;;;16.95;9.90;;;28.80;99.90;;;;;;1881685;74;21120;-76
2023/05/26 09:37:51;;;;;;;13.75;9.58;;;28.80;99.90;;;;;;1886078;74;21152;-84
2023/05/26 09:40:23;;;;;;;12.43;9.73;;;28.80;99.90;;;;;;1891931;74;21111;-80
2023/05/26 09:42:55;;;;;;;13.03;8.48;;;28.70;99.90;;;;;;1896027;74;21246;-78
2023/05/26 09:45:26;;;;;;;11.65;8.53;;;28.60;99.90;;;;;;1906646;74;21249;-79
2023/05/26 09:47:57;;;;;;;10.40;7.97;;;28.60;99.90;;;;;;1904204;74;21198;-80
2023/05/26 09:50:33;;;;;;;10.45;7.05;;;28.50;99.90;;;;;;1902424;74;21147;-78
2023/05/26 09:53:12;;;;;;;8.97;6.50;;;28.50;99.90;;;;;;1903354;74;21257;-76
2023/05/26 09:55:45;;;;;;;19.85;7.67;;;28.40;99.90;;;;;;1840304;76;21512;-79
2023/05/26 09:58:19;;;;;;;7.47;4.62;;;28.30;99.90;;;;;;1891430;74;21092;-77
2023/05/26 10:00:52;;;;;;;10.90;5.70;;;28.30;99.90;;;;;;1891367;75;21139;-81
2023/05/26 10:03:23;;;;;;;8.00;5.67;;;28.20;99.90;;;;;;1903756;74;21855;-80
2023/05/26 10:05:56;;;;;;;7.28;5.37;;;28.20;99.90;;;;;;1891604;75;21191;-80
2023/05/26 10:08:30;;;;;;;10.15;5.72;;;28.20;99.90;;;;;;1898499;74;21163;-79
2023/05/26 10:11:02;;;;;;;8.43;5.10;;;28.10;99.90;;;;;;1896879;75;21210;-78
2023/05/26 10:13:35;;;;;;;6.35;4.60;;;28.10;99.90;;;;;;1887598;74;21101;-79
2023/05/26 10:16:08;;;;;;;7.72;5.03;;;28.10;99.90;;;;;;1890989;75;21168;-82
2023/05/26 10:18:40;;;;;;;9.18;5.72;;;28.00;99.90;;;;;;1885012;75;21210;-77
2023/05/26 10:21:12;;;;;;;12.07;5.75;;;28.00;99.90;;;;;;1889733;74;21144;-81
2023/05/26 10:23:50;;;;;;;7.25;5.67;;;28.00;99.90;;;;;;1886003;74;21109;-78
2023/05/26 10:26:40;;;;;;;8.90;5.85;;;27.90;99.90;;;;;;1900661;74;21132;-85
2023/05/26 10:29:13;;;;;;;9.33;5.83;;;27.90;99.90;;;;;;1894688;74;21182;-78
2023/05/26 10:31:52;;;;;;;9.83;6.00;;;27.90;99.90;;;;;;1885232;75;21112;-82
2023/05/26 10:34:47;;;;;;;11.50;6.17;;;27.90;99.90;;;;;;1893014;74;21174;-82
2023/05/26 10:37:19;;;;;;;9.75;6.70;;;27.80;99.90;;;;;;1899715;75;21041;-78
2023/05/26 10:39:51;;;;;;;9.43;6.30;;;27.90;99.90;;;;;;1900509;74;21140;-80
2023/05/26 10:42:28;;;;;;;9.20;5.85;;;27.90;99.90;;;;;;1875841;75;21160;-78
2023/05/26 10:45:01;;;;;;;12.93;7.87;;;27.90;99.90;;;;;;1883037;74;21097;-78
2023/05/26 10:47:38;;;;;;;14.10;8.35;;;27.90;99.90;;;;;;1890083;74;21143;-80
2023/05/26 10:50:10;;;;;;;12.53;6.35;;;27.90;99.90;;;;;;1887789;74;21147;-77
2023/05/26 10:52:52;;;;;;;7.80;6.47;;;27.90;99.90;;;;;;1879281;75;21257;-80
2023/05/26 10:55:34;;;;;;;8.55;6.05;;;27.90;99.90;;;;;;1881518;74;21178;-84
2023/05/26 10:58:47;;;;;;;11.40;6.90;;;27.90;99.90;;;;;;1884150;75;21089;-77
2023/05/26 11:01:32;;;;;;;16.00;7.37;;;27.90;99.90;;;;;;1882108;75;21058;-85
2023/05/26 11:04:09;;;;;;;11.73;6.92;;;27.90;99.90;;;;;;1887688;75;21226;-85
2023/05/26 11:07:01;;;;;;;11.60;6.33;;;27.90;99.90;;;;;;1877687;75;21682;-87
2023/05/26 11:09:35;;;;;;;8.98;6.35;;;27.80;99.90;;;;;;1884323;75;21121;-86
2023/05/26 11:12:08;;;;;;;13.35;7.45;;;27.80;99.90;;;;;;1876352;75;21176;-87
2023/05/26 11:14:55;;;;;;;10.60;7.35;;;27.80;99.90;;;;;;1901859;75;21131;-86
2023/05/26 11:17:25;;;;;;;10.70;7.80;;;27.90;99.90;;;;;;1879018;75;21240;-87
2023/05/26 11:20:21;;;;;;;13.50;7.67;;;27.90;99.90;;;;;;1879966;75;21143;-87
2023/05/26 11:22:54;;;;;;;11.97;7.67;;;27.90;99.90;;;;;;1880834;75;21294;-87
2023/05/26 11:25:39;;;;;;;16.83;9.20;;;27.90;99.90;;;;;;1883427;74;21229;-86
2023/05/26 11:28:09;;;;;;;16.97;9.55;;;27.90;99.90;;;;;;1869756;74;21148;-87
2023/05/26 11:30:41;;;;;;;12.18;8.68;;;27.90;99.90;;;;;;1885192;74;21540;-82
2023/05/26 11:33:15;;;;;;;14.58;9.05;;;28.00;99.90;;;;;;1855198;76;21140;-84
2023/05/26 11:35:50;;;;;;;18.25;8.68;;;28.00;99.90;;;;;;1885756;75;21077;-86
2023/05/26 11:38:21;;;;;;;15.72;9.73;;;28.00;99.90;;;;;;1891521;74;21219;-86
2023/05/26 11:41:31;;;;;;;17.42;8.95;;;28.00;99.90;;;;;;1883606;75;21183;-87
2023/05/26 11:44:04;;;;;;;16.32;9.20;;;28.10;99.90;;;;;;1882229;75;21196;-87
2023/05/26 11:46:40;;;;;;;18.90;8.50;;;28.10;99.90;;;;;;1881964;75;21125;-86
2023/05/26 11:49:18;;;;;;;14.33;8.68;;;28.10;99.90;;;;;;1878804;75;21311;-86
2023/05/26 11:51:51;;;;;;;15.35;8.98;;;28.10;99.90;;;;;;1884826;75;21698;-86
2023/05/26 11:54:22;;;;;;;15.75;8.88;;;28.10;99.90;;;;;;1883873;74;21591;-86
2023/05/26 11:56:55;;;;;;;11.95;8.30;;;28.10;99.90;;;;;;1885849;75;21141;-86
2023/05/26 11:59:27;;;;;;;12.47;9.70;;;28.00;99.90;;;;;;1850332;77;21564;-86
2023/05/26 12:02:00;;;;;;;12.60;8.05;;;28.10;99.90;;;;;;1886812;75;21089;-86
2023/05/26 12:04:38;;;;;;;16.02;9.50;;;28.10;99.90;;;;;;1877790;74;21124;-85
2023/05/26 12:07:14;;;;;;;16.25;9.08;;;28.10;99.90;;;;;;1882658;75;21178;-86
2023/05/26 12:09:45;;;;;;;13.43;8.50;;;28.10;99.90;;;;;;1880808;74;21709;-87
2023/05/26 12:12:27;;;;;;;15.72;8.98;;;28.10;99.90;;;;;;1835933;76;21636;-86
2023/05/26 12:29:26;;;;;;;16.05;10.00;;;28.20;99.90;;;;;;1806222;77;21134;-88
2023/05/26 12:32:13;;;;;;;14.68;9.73;;;28.20;99.90;;;;;;1688644;83;21372;-87
2023/05/26 12:35:24;;;;;;;23.07;11.70;;;28.10;99.90;;;;;;1739432;79;21222;-87
2023/05/26 12:41:40;;;;;;;14.15;10.05;;;28.10;99.90;;;;;;1717582;82;21235;-87
2023/05/26 12:44:12;;;;;;;13.75;10.32;;;28.10;99.90;;;;;;1754386;77;21155;-86
2023/05/26 12:46:49;;;;;;;13.10;9.95;;;28.00;99.90;;;;;;1802139;78;21092;-87
2023/05/26 12:49:19;;;;;;;;;;;28.00;99.90;;;;;;1871129;75;21107;-88
2023/05/26 12:51:50;;;;;;;16.62;9.85;;;27.90;99.90;;;;;;1859114;75;20214;-87
2023/05/26 12:54:27;;;;;;;15.80;9.75;;;27.90;99.90;;;;;;1865017;75;21201;-85
2023/05/26 12:56:57;;;;;;;15.43;9.68;;;27.90;99.90;;;;;;1864126;75;21576;-88
2023/05/26 13:00:02;;;;;;;16.25;9.98;;;27.80;99.90;;;;;;1863788;76;21080;-86
2023/05/26 13:02:25;;;;;;;13.70;9.50;;;27.80;99.90;;;;;;1811491;77;21224;-87
2023/05/26 13:04:57;;;;;;;12.63;9.40;;;27.80;99.90;;;;;;1845367;76;21663;-87
2023/05/26 13:07:38;;;;;;;13.08;9.58;;;27.80;99.90;;;;;;1855237;76;21632;-85
2023/05/26 13:10:09;;;;;;;15.45;10.55;;;27.90;99.90;;;;;;1853447;76;21184;-86
2023/05/26 13:12:51;;;;;;;;;;;;;;;;;;;;;
2023/05/26 13:15:21;;;;;;;17.98;11.03;;;27.90;99.90;;;;;;1839003;76;21075;-88
2023/05/26 13:17:57;;;;;;;19.62;11.38;;;28.00;99.90;;;;;;1846668;76;21687;-87
2023/05/26 13:20:30;;;;;;;16.00;10.80;;;28.00;99.90;;;;;;1806224;78;21159;-87
2023/05/26 13:23:06;;;;;;;17.42;10.93;;;28.00;99.90;;;;;;1842840;78;21607;-87
2023/05/26 13:25:36;;;;;;;14.03;10.60;;;28.00;99.90;;;;;;1843029;76;21123;-86
2023/05/26 13:28:10;;;;;;;14.25;10.28;;;28.00;99.90;;;;;;1842719;78;21152;-86
2023/05/26 13:30:41;;;;;;;15.18;10.78;;;27.90;99.90;;;;;;1843212;78;21673;-87
2023/05/26 13:33:12;;;;;;;13.35;11.10;;;27.90;99.90;;;;;;1847944;76;21748;-86
2023/05/26 13:35:44;;;;;;;18.65;10.35;;;27.90;99.90;;;;;;1819922;78;21148;-86
2023/05/26 13:38:15;;;;;;;13.75;10.15;;;27.90;99.90;;;;;;1863524;76;21076;-86
2023/05/26 13:40:48;;;;;;;16.65;10.82;;;27.90;99.90;;;;;;1884213;75;21247;-88